Byers, Kansas
Current Conditions -  °F | °C
As of 8:55 AM on Monday 24 Nov 2014 (Local Time) from KPTT Reporting Station
Clear Clear  
Wind Chill: 27°   Ceiling: Unl
Heat Index: 37°   Visibility: 10mi
Dew Point: 19°   Wind: 20mph
Humidity: 48%   Direction: 300°WNW
Pressure: 29.88"   Gusts: 25mph
Location:  37.79°N, 98.87°W
Report Text: KPTT 241455Z AUTO 30017G22KT 10SM CLR 03/M07 A2988 RMK AO2
Loading
Personal Weather Stations






























Interactive Weather Map New forecast layout! Learn more

10-Day Weather Forecast

Advertisements
Track Severe Weather on mobile